sensor_id;sensor_type;location;lat;lon;timestamp;temperature;humidity
19359;DHT22;9815;52.334;20.890;2024-02-26T00:00:06;4.40;99.90
19359;DHT22;9815;52.334;20.890;2024-02-26T00:02:38;4.40;99.90
19359;DHT22;9815;52.334;20.890;2024-02-26T00:05:08;4.40;99.90
19359;DHT22;9815;52.334;20.890;2024-02-26T00:07:36;4.40;99.90
19359;DHT22;9815;52.334;20.890;2024-02-26T00:10:09;4.40;99.90
19359;DHT22;9815;52.334;20.890;2024-02-26T00:12:37;4.40;99.90
19359;DHT22;9815;52.334;20.890;2024-02-26T00:15:08;4.40;99.90
19359;DHT22;9815;52.334;20.890;2024-02-26T00:17:37;4.30;99.90
19359;DHT22;9815;52.334;20.890;2024-02-26T00:20:06;4.30;99.90
19359;DHT22;9815;52.334;20.890;2024-02-26T00:22:36;4.30;99.90
19359;DHT22;9815;52.334;20.890;2024-02-26T00:25:07;4.20;99.90
19359;DHT22;9815;52.334;20.890;2024-02-26T00:27:36;4.20;99.90
19359;DHT22;9815;52.334;20.890;2024-02-26T00:30:07;4.10;99.90
19359;DHT22;9815;52.334;20.890;2024-02-26T00:32:36;4.00;99.90
19359;DHT22;9815;52.334;20.890;2024-02-26T00:35:06;3.90;99.90
19359;DHT22;9815;52.334;20.890;2024-02-26T00:37:36;3.90;99.90
19359;DHT22;9815;52.334;20.890;2024-02-26T00:40:07;3.80;99.90
19359;DHT22;9815;52.334;20.890;2024-02-26T00:42:37;3.80;99.90
19359;DHT22;9815;52.334;20.890;2024-02-26T00:45:06;3.70;99.90
19359;DHT22;9815;52.334;20.890;2024-02-26T00:47:36;3.70;99.90
19359;DHT22;9815;52.334;20.890;2024-02-26T00:50:05;3.70;99.90
19359;DHT22;9815;52.334;20.890;2024-02-26T00:52:34;3.60;99.90
19359;DHT22;9815;52.334;20.890;2024-02-26T00:55:03;3.60;99.90
19359;DHT22;9815;52.334;20.890;2024-02-26T00:57:34;3.50;99.90
19359;DHT22;9815;52.334;20.890;2024-02-26T01:00:05;3.50;99.90
19359;DHT22;9815;52.334;20.890;2024-02-26T01:02:36;3.50;99.90
19359;DHT22;9815;52.334;20.890;2024-02-26T01:05:06;3.50;99.90
19359;DHT22;9815;52.334;20.890;2024-02-26T01:07:36;3.50;99.90
19359;DHT22;9815;52.334;20.890;2024-02-26T01:10:06;3.50;99.90
19359;DHT22;9815;52.334;20.890;2024-02-26T01:12:36;3.40;99.90
19359;DHT22;9815;52.334;20.890;2024-02-26T01:15:06;3.40;99.90
19359;DHT22;9815;52.334;20.890;2024-02-26T01:17:36;3.30;99.90
19359;DHT22;9815;52.334;20.890;2024-02-26T01:20:06;3.30;99.90
19359;DHT22;9815;52.334;20.890;2024-02-26T01:22:36;3.30;99.90
19359;DHT22;9815;52.334;20.890;2024-02-26T01:25:06;3.30;99.90
19359;DHT22;9815;52.334;20.890;2024-02-26T01:27:38;3.40;99.90
19359;DHT22;9815;52.334;20.890;2024-02-26T01:30:09;3.30;99.90
19359;DHT22;9815;52.334;20.890;2024-02-26T01:32:38;3.30;99.90
19359;DHT22;9815;52.334;20.890;2024-02-26T01:35:07;3.20;99.90
19359;DHT22;9815;52.334;20.890;2024-02-26T01:37:39;3.20;99.90
19359;DHT22;9815;52.334;20.890;2024-02-26T01:40:09;3.10;99.90
19359;DHT22;9815;52.334;20.890;2024-02-26T01:42:39;3.00;99.90
19359;DHT22;9815;52.334;20.890;2024-02-26T01:45:13;3.00;99.90
19359;DHT22;9815;52.334;20.890;2024-02-26T01:47:50;3.10;99.90
19359;DHT22;9815;52.334;20.890;2024-02-26T01:50:19;3.20;99.90
19359;DHT22;9815;52.334;20.890;2024-02-26T01:52:50;3.20;99.90
19359;DHT22;9815;52.334;20.890;2024-02-26T01:55:20;3.10;99.90
19359;DHT22;9815;52.334;20.890;2024-02-26T01:57:52;3.00;99.90
19359;DHT22;9815;52.334;20.890;2024-02-26T02:00:22;3.00;99.90
19359;DHT22;9815;52.334;20.890;2024-02-26T02:02:51;3.00;99.90
19359;DHT22;9815;52.334;20.890;2024-02-26T02:05:22;3.10;99.90
19359;DHT22;9815;52.334;20.890;2024-02-26T02:07:51;3.10;99.90
19359;DHT22;9815;52.334;20.890;2024-02-26T02:10:21;3.00;99.90
19359;DHT22;9815;52.334;20.890;2024-02-26T02:12:54;3.00;99.90
19359;DHT22;9815;52.334;20.890;2024-02-26T02:15:23;2.90;99.90
19359;DHT22;9815;52.334;20.890;2024-02-26T02:17:52;2.80;99.90
19359;DHT22;9815;52.334;20.890;2024-02-26T02:20:26;2.70;99.90
19359;DHT22;9815;52.334;20.890;2024-02-26T02:22:55;2.60;99.90
19359;DHT22;9815;52.334;20.890;2024-02-26T02:25:23;2.60;99.90
19359;DHT22;9815;52.334;20.890;2024-02-26T02:27:53;2.60;99.90
19359;DHT22;9815;52.334;20.890;2024-02-26T02:30:25;2.50;99.90
19359;DHT22;9815;52.334;20.890;2024-02-26T02:32:54;2.50;99.90
19359;DHT22;9815;52.334;20.890;2024-02-26T02:35:25;2.50;99.90
19359;DHT22;9815;52.334;20.890;2024-02-26T02:37:55;2.50;99.90
19359;DHT22;9815;52.334;20.890;2024-02-26T02:40:24;2.40;99.90
19359;DHT22;9815;52.334;20.890;2024-02-26T02:42:53;2.40;99.90
19359;DHT22;9815;52.334;20.890;2024-02-26T02:45:22;2.50;99.90
19359;DHT22;9815;52.334;20.890;2024-02-26T02:47:51;2.40;99.90
19359;DHT22;9815;52.334;20.890;2024-02-26T02:50:20;2.40;99.90
19359;DHT22;9815;52.334;20.890;2024-02-26T02:52:50;2.40;99.90
19359;DHT22;9815;52.334;20.890;2024-02-26T02:55:20;2.40;99.90
19359;DHT22;9815;52.334;20.890;2024-02-26T02:57:48;2.30;99.90
19359;DHT22;9815;52.334;20.890;2024-02-26T03:00:18;2.30;99.90
19359;DHT22;9815;52.334;20.890;2024-02-26T03:02:47;2.20;99.90
19359;DHT22;9815;52.334;20.890;2024-02-26T03:05:16;2.20;99.90
19359;DHT22;9815;52.334;20.890;2024-02-26T03:07:45;2.20;99.90
19359;DHT22;9815;52.334;20.890;2024-02-26T03:10:15;2.20;99.90
19359;DHT22;9815;52.334;20.890;2024-02-26T03:12:44;2.20;99.90
19359;DHT22;9815;52.334;20.890;2024-02-26T03:15:12;2.20;99.90
19359;DHT22;9815;52.334;20.890;2024-02-26T03:17:42;2.20;99.90
19359;DHT22;9815;52.334;20.890;2024-02-26T03:20:11;2.30;99.90
19359;DHT22;9815;52.334;20.890;2024-02-26T03:22:40;2.20;99.90
19359;DHT22;9815;52.334;20.890;2024-02-26T03:25:09;2.20;99.90
19359;DHT22;9815;52.334;20.890;2024-02-26T03:27:39;2.20;99.90
19359;DHT22;9815;52.334;20.890;2024-02-26T03:30:09;2.20;99.90
19359;DHT22;9815;52.334;20.890;2024-02-26T03:32:38;2.20;99.90
19359;DHT22;9815;52.334;20.890;2024-02-26T03:35:08;2.20;99.90
19359;DHT22;9815;52.334;20.890;2024-02-26T03:37:37;2.20;99.90
19359;DHT22;9815;52.334;20.890;2024-02-26T03:40:07;2.10;99.90
19359;DHT22;9815;52.334;20.890;2024-02-26T03:42:36;2.10;99.90
19359;DHT22;9815;52.334;20.890;2024-02-26T03:45:07;2.10;99.90
19359;DHT22;9815;52.334;20.890;2024-02-26T03:47:38;2.00;99.90
19359;DHT22;9815;52.334;20.890;2024-02-26T03:50:08;2.00;99.90
19359;DHT22;9815;52.334;20.890;2024-02-26T03:52:37;1.90;99.90
19359;DHT22;9815;52.334;20.890;2024-02-26T03:55:06;1.90;99.90
19359;DHT22;9815;52.334;20.890;2024-02-26T03:57:35;2.00;99.90
19359;DHT22;9815;52.334;20.890;2024-02-26T04:00:07;1.90;99.90
19359;DHT22;9815;52.334;20.890;2024-02-26T04:02:41;1.90;99.90
19359;DHT22;9815;52.334;20.890;2024-02-26T04:05:10;1.80;99.90
19359;DHT22;9815;52.334;20.890;2024-02-26T04:07:39;1.80;99.90
19359;DHT22;9815;52.334;20.890;2024-02-26T04:10:11;1.80;99.90
19359;DHT22;9815;52.334;20.890;2024-02-26T04:12:40;1.80;99.90
19359;DHT22;9815;52.334;20.890;2024-02-26T04:15:11;1.80;99.90
19359;DHT22;9815;52.334;20.890;2024-02-26T04:17:40;1.80;99.90
19359;DHT22;9815;52.334;20.890;2024-02-26T04:20:13;1.90;99.90
19359;DHT22;9815;52.334;20.890;2024-02-26T04:22:43;1.80;99.90
19359;DHT22;9815;52.334;20.890;2024-02-26T04:25:12;1.80;99.90
19359;DHT22;9815;52.334;20.890;2024-02-26T04:27:40;1.70;99.90
19359;DHT22;9815;52.334;20.890;2024-02-26T04:30:11;1.90;99.90
19359;DHT22;9815;52.334;20.890;2024-02-26T04:32:40;1.90;99.90
19359;DHT22;9815;52.334;20.890;2024-02-26T04:35:10;1.80;99.90
19359;DHT22;9815;52.334;20.890;2024-02-26T04:37:39;1.70;99.90
19359;DHT22;9815;52.334;20.890;2024-02-26T04:40:08;1.70;99.90
19359;DHT22;9815;52.334;20.890;2024-02-26T04:42:36;1.60;99.90
19359;DHT22;9815;52.334;20.890;2024-02-26T04:45:06;1.70;99.90
19359;DHT22;9815;52.334;20.890;2024-02-26T04:47:37;1.60;99.90
19359;DHT22;9815;52.334;20.890;2024-02-26T04:50:06;1.60;99.90
19359;DHT22;9815;52.334;20.890;2024-02-26T04:52:35;1.50;99.90
19359;DHT22;9815;52.334;20.890;2024-02-26T04:55:04;1.60;99.90
19359;DHT22;9815;52.334;20.890;2024-02-26T04:57:33;1.60;99.90
19359;DHT22;9815;52.334;20.890;2024-02-26T05:00:01;1.60;99.90
19359;DHT22;9815;52.334;20.890;2024-02-26T05:02:32;1.60;99.90
19359;DHT22;9815;52.334;20.890;2024-02-26T05:05:07;1.60;99.90
19359;DHT22;9815;52.334;20.890;2024-02-26T05:07:40;1.60;99.90
19359;DHT22;9815;52.334;20.890;2024-02-26T05:10:09;1.60;99.90
19359;DHT22;9815;52.334;20.890;2024-02-26T05:12:38;1.60;99.90
19359;DHT22;9815;52.334;20.890;2024-02-26T05:15:10;1.60;99.90
19359;DHT22;9815;52.334;20.890;2024-02-26T05:17:40;1.60;99.90
19359;DHT22;9815;52.334;20.890;2024-02-26T05:20:10;1.60;99.90
19359;DHT22;9815;52.334;20.890;2024-02-26T05:22:39;1.60;99.90
19359;DHT22;9815;52.334;20.890;2024-02-26T05:25:08;1.60;99.90
19359;DHT22;9815;52.334;20.890;2024-02-26T05:27:37;1.60;99.90
19359;DHT22;9815;52.334;20.890;2024-02-26T05:30:06;1.60;99.90
19359;DHT22;9815;52.334;20.890;2024-02-26T05:32:35;1.60;99.90
19359;DHT22;9815;52.334;20.890;2024-02-26T05:35:05;1.60;99.90
19359;DHT22;9815;52.334;20.890;2024-02-26T05:37:35;1.70;99.90
19359;DHT22;9815;52.334;20.890;2024-02-26T05:40:05;1.70;99.90
19359;DHT22;9815;52.334;20.890;2024-02-26T05:42:34;1.80;99.90
19359;DHT22;9815;52.334;20.890;2024-02-26T05:45:03;1.90;99.90
19359;DHT22;9815;52.334;20.890;2024-02-26T05:47:33;1.90;99.90
19359;DHT22;9815;52.334;20.890;2024-02-26T05:50:03;2.00;99.90
19359;DHT22;9815;52.334;20.890;2024-02-26T05:52:31;2.00;99.90
19359;DHT22;9815;52.334;20.890;2024-02-26T05:55:01;2.10;99.90
19359;DHT22;9815;52.334;20.890;2024-02-26T05:57:31;2.00;99.90
19359;DHT22;9815;52.334;20.890;2024-02-26T06:00:00;2.10;99.90
19359;DHT22;9815;52.334;20.890;2024-02-26T06:02:40;2.20;99.90
19359;DHT22;9815;52.334;20.890;2024-02-26T06:05:09;2.20;99.90
19359;DHT22;9815;52.334;20.890;2024-02-26T06:07:38;2.30;99.90
19359;DHT22;9815;52.334;20.890;2024-02-26T06:10:09;2.40;99.90
19359;DHT22;9815;52.334;20.890;2024-02-26T06:12:40;2.40;99.90
19359;DHT22;9815;52.334;20.890;2024-02-26T06:15:10;2.40;99.90
19359;DHT22;9815;52.334;20.890;2024-02-26T06:17:40;2.50;99.90
19359;DHT22;9815;52.334;20.890;2024-02-26T06:20:09;2.60;99.90
19359;DHT22;9815;52.334;20.890;2024-02-26T06:22:40;2.50;99.90
19359;DHT22;9815;52.334;20.890;2024-02-26T06:25:11;2.50;99.90
19359;DHT22;9815;52.334;20.890;2024-02-26T06:27:40;2.50;99.90
19359;DHT22;9815;52.334;20.890;2024-02-26T06:30:09;2.50;99.90
19359;DHT22;9815;52.334;20.890;2024-02-26T06:32:38;2.50;99.90
19359;DHT22;9815;52.334;20.890;2024-02-26T06:35:08;2.60;99.90
19359;DHT22;9815;52.334;20.890;2024-02-26T06:37:39;2.60;99.90
19359;DHT22;9815;52.334;20.890;2024-02-26T06:40:08;2.70;99.90
19359;DHT22;9815;52.334;20.890;2024-02-26T06:42:39;2.70;99.90
19359;DHT22;9815;52.334;20.890;2024-02-26T06:45:08;3.00;99.90
19359;DHT22;9815;52.334;20.890;2024-02-26T06:47:37;3.40;99.90
19359;DHT22;9815;52.334;20.890;2024-02-26T06:50:06;3.60;99.90
19359;DHT22;9815;52.334;20.890;2024-02-26T06:52:35;3.70;99.90
19359;DHT22;9815;52.334;20.890;2024-02-26T06:55:05;3.90;99.90
19359;DHT22;9815;52.334;20.890;2024-02-26T06:57:36;4.20;99.90
19359;DHT22;9815;52.334;20.890;2024-02-26T07:00:07;4.50;99.90
19359;DHT22;9815;52.334;20.890;2024-02-26T07:02:41;4.80;99.90
19359;DHT22;9815;52.334;20.890;2024-02-26T07:05:10;5.10;99.90
19359;DHT22;9815;52.334;20.890;2024-02-26T07:07:39;5.40;99.90
19359;DHT22;9815;52.334;20.890;2024-02-26T07:10:09;5.60;99.90
19359;DHT22;9815;52.334;20.890;2024-02-26T07:12:40;5.80;99.90
19359;DHT22;9815;52.334;20.890;2024-02-26T07:15:11;6.00;99.90
19359;DHT22;9815;52.334;20.890;2024-02-26T07:17:40;6.20;99.90
19359;DHT22;9815;52.334;20.890;2024-02-26T07:20:14;6.50;99.90
19359;DHT22;9815;52.334;20.890;2024-02-26T07:22:45;6.70;99.90
19359;DHT22;9815;52.334;20.890;2024-02-26T07:25:14;6.70;99.90
19359;DHT22;9815;52.334;20.890;2024-02-26T07:27:43;6.80;99.90
19359;DHT22;9815;52.334;20.890;2024-02-26T07:30:14;6.80;99.90
19359;DHT22;9815;52.334;20.890;2024-02-26T07:32:43;6.80;99.90
19359;DHT22;9815;52.334;20.890;2024-02-26T07:35:17;6.90;99.90
19359;DHT22;9815;52.334;20.890;2024-02-26T07:37:48;7.10;99.90
19359;DHT22;9815;52.334;20.890;2024-02-26T07:40:17;7.40;99.90
19359;DHT22;9815;52.334;20.890;2024-02-26T07:42:46;7.70;99.90
19359;DHT22;9815;52.334;20.890;2024-02-26T07:45:16;8.00;99.90
19359;DHT22;9815;52.334;20.890;2024-02-26T07:47:48;8.10;99.90
19359;DHT22;9815;52.334;20.890;2024-02-26T07:50:18;8.30;99.90
19359;DHT22;9815;52.334;20.890;2024-02-26T07:52:48;8.40;99.90
19359;DHT22;9815;52.334;20.890;2024-02-26T07:55:18;8.60;99.90
19359;DHT22;9815;52.334;20.890;2024-02-26T07:57:47;8.70;99.90
19359;DHT22;9815;52.334;20.890;2024-02-26T08:00:18;8.70;99.90
19359;DHT22;9815;52.334;20.890;2024-02-26T08:02:49;8.80;99.90
19359;DHT22;9815;52.334;20.890;2024-02-26T08:05:18;8.90;99.90
19359;DHT22;9815;52.334;20.890;2024-02-26T08:07:47;9.00;99.90
19359;DHT22;9815;52.334;20.890;2024-02-26T08:10:16;9.10;99.90
19359;DHT22;9815;52.334;20.890;2024-02-26T08:12:45;9.30;99.90
19359;DHT22;9815;52.334;20.890;2024-02-26T08:15:14;9.30;99.90
19359;DHT22;9815;52.334;20.890;2024-02-26T08:17:44;9.50;99.90
19359;DHT22;9815;52.334;20.890;2024-02-26T08:20:15;9.60;99.90
19359;DHT22;9815;52.334;20.890;2024-02-26T08:22:43;9.80;99.90
19359;DHT22;9815;52.334;20.890;2024-02-26T08:25:12;9.90;99.90
19359;DHT22;9815;52.334;20.890;2024-02-26T08:27:41;10.10;99.90
19359;DHT22;9815;52.334;20.890;2024-02-26T08:30:12;10.20;99.90
19359;DHT22;9815;52.334;20.890;2024-02-26T08:32:45;10.30;99.90
19359;DHT22;9815;52.334;20.890;2024-02-26T08:35:18;10.30;99.90
19359;DHT22;9815;52.334;20.890;2024-02-26T08:37:47;10.40;99.90
19359;DHT22;9815;52.334;20.890;2024-02-26T08:40:16;10.50;99.90
19359;DHT22;9815;52.334;20.890;2024-02-26T08:42:46;10.50;99.90
19359;DHT22;9815;52.334;20.890;2024-02-26T08:45:15;10.60;99.90
19359;DHT22;9815;52.334;20.890;2024-02-26T08:47:46;10.60;99.90
19359;DHT22;9815;52.334;20.890;2024-02-26T08:50:15;10.70;99.90
19359;DHT22;9815;52.334;20.890;2024-02-26T08:52:44;10.80;99.90
19359;DHT22;9815;52.334;20.890;2024-02-26T08:55:15;10.90;99.90
19359;DHT22;9815;52.334;20.890;2024-02-26T08:57:44;11.10;99.90
19359;DHT22;9815;52.334;20.890;2024-02-26T09:00:13;11.30;99.90
19359;DHT22;9815;52.334;20.890;2024-02-26T09:02:46;11.60;99.90
19359;DHT22;9815;52.334;20.890;2024-02-26T09:05:17;11.80;99.90
19359;DHT22;9815;52.334;20.890;2024-02-26T09:07:45;12.00;99.90
19359;DHT22;9815;52.334;20.890;2024-02-26T09:10:15;12.30;99.90
19359;DHT22;9815;52.334;20.890;2024-02-26T09:12:44;12.50;99.90
19359;DHT22;9815;52.334;20.890;2024-02-26T09:15:13;12.60;99.90
19359;DHT22;9815;52.334;20.890;2024-02-26T09:17:42;12.70;99.90
19359;DHT22;9815;52.334;20.890;2024-02-26T09:20:16;12.80;99.90
19359;DHT22;9815;52.334;20.890;2024-02-26T09:22:50;13.00;99.90
19359;DHT22;9815;52.334;20.890;2024-02-26T09:25:19;13.20;99.90
19359;DHT22;9815;52.334;20.890;2024-02-26T09:27:48;13.30;99.90
19359;DHT22;9815;52.334;20.890;2024-02-26T09:30:16;13.30;99.90
19359;DHT22;9815;52.334;20.890;2024-02-26T09:32:46;13.40;99.90
19359;DHT22;9815;52.334;20.890;2024-02-26T09:35:17;13.60;99.90
19359;DHT22;9815;52.334;20.890;2024-02-26T09:37:46;13.70;99.90
19359;DHT22;9815;52.334;20.890;2024-02-26T09:40:16;13.90;99.90
19359;DHT22;9815;52.334;20.890;2024-02-26T09:42:45;13.90;99.90
19359;DHT22;9815;52.334;20.890;2024-02-26T09:45:19;13.80;99.90
19359;DHT22;9815;52.334;20.890;2024-02-26T09:47:50;13.90;99.90
19359;DHT22;9815;52.334;20.890;2024-02-26T09:50:21;14.00;99.90
19359;DHT22;9815;52.334;20.890;2024-02-26T09:52:51;14.10;99.90
19359;DHT22;9815;52.334;20.890;2024-02-26T09:55:20;14.20;99.90
19359;DHT22;9815;52.334;20.890;2024-02-26T09:57:51;14.40;99.90
19359;DHT22;9815;52.334;20.890;2024-02-26T10:00:21;14.50;99.90
19359;DHT22;9815;52.334;20.890;2024-02-26T10:02:51;14.70;99.90
19359;DHT22;9815;52.334;20.890;2024-02-26T10:05:21;14.90;99.90
19359;DHT22;9815;52.334;20.890;2024-02-26T10:07:52;15.20;99.90
19359;DHT22;9815;52.334;20.890;2024-02-26T10:10:23;15.40;93.80
19359;DHT22;9815;52.334;20.890;2024-02-26T10:12:51;15.00;99.10
19359;DHT22;9815;52.334;20.890;2024-02-26T10:15:21;14.80;99.90
19359;DHT22;9815;52.334;20.890;2024-02-26T10:17:49;14.80;99.90
19359;DHT22;9815;52.334;20.890;2024-02-26T10:20:19;14.90;99.90
19359;DHT22;9815;52.334;20.890;2024-02-26T10:22:51;14.90;99.90
19359;DHT22;9815;52.334;20.890;2024-02-26T10:25:20;14.60;99.90
19359;DHT22;9815;52.334;20.890;2024-02-26T10:27:49;14.20;99.90
19359;DHT22;9815;52.334;20.890;2024-02-26T10:30:20;14.10;99.90
19359;DHT22;9815;52.334;20.890;2024-02-26T10:32:51;14.30;99.90
19359;DHT22;9815;52.334;20.890;2024-02-26T10:35:20;14.50;99.90
19359;DHT22;9815;52.334;20.890;2024-02-26T10:37:51;14.20;99.90
19359;DHT22;9815;52.334;20.890;2024-02-26T10:40:19;13.90;99.90
19359;DHT22;9815;52.334;20.890;2024-02-26T10:42:48;13.70;99.90
19359;DHT22;9815;52.334;20.890;2024-02-26T10:45:17;13.70;99.90
19359;DHT22;9815;52.334;20.890;2024-02-26T10:47:46;14.10;99.90
19359;DHT22;9815;52.334;20.890;2024-02-26T10:50:15;14.40;99.90
19359;DHT22;9815;52.334;20.890;2024-02-26T10:52:44;14.80;99.90
19359;DHT22;9815;52.334;20.890;2024-02-26T10:55:16;14.90;99.90
19359;DHT22;9815;52.334;20.890;2024-02-26T10:57:48;15.10;99.90
19359;DHT22;9815;52.334;20.890;2024-02-26T11:00:19;15.00;99.90
19359;DHT22;9815;52.334;20.890;2024-02-26T11:02:48;15.00;99.90
19359;DHT22;9815;52.334;20.890;2024-02-26T11:05:17;15.10;99.90
19359;DHT22;9815;52.334;20.890;2024-02-26T11:07:47;15.10;99.90
19359;DHT22;9815;52.334;20.890;2024-02-26T11:10:19;15.10;99.90
19359;DHT22;9815;52.334;20.890;2024-02-26T11:12:48;14.90;99.90
19359;DHT22;9815;52.334;20.890;2024-02-26T11:15:18;15.00;99.90
19359;DHT22;9815;52.334;20.890;2024-02-26T11:17:48;15.00;99.90
19359;DHT22;9815;52.334;20.890;2024-02-26T11:20:17;14.70;99.90
19359;DHT22;9815;52.334;20.890;2024-02-26T11:22:48;14.50;99.90
19359;DHT22;9815;52.334;20.890;2024-02-26T11:25:18;14.10;99.90
19359;DHT22;9815;52.334;20.890;2024-02-26T11:27:51;14.10;99.90
19359;DHT22;9815;52.334;20.890;2024-02-26T11:30:22;14.40;99.90
19359;DHT22;9815;52.334;20.890;2024-02-26T11:32:52;14.50;99.90
19359;DHT22;9815;52.334;20.890;2024-02-26T11:35:22;14.30;99.90
19359;DHT22;9815;52.334;20.890;2024-02-26T11:37:53;14.10;99.90
19359;DHT22;9815;52.334;20.890;2024-02-26T11:40:24;13.70;99.90
19359;DHT22;9815;52.334;20.890;2024-02-26T11:42:54;13.50;99.90
19359;DHT22;9815;52.334;20.890;2024-02-26T11:45:56;13.40;99.90
19359;DHT22;9815;52.334;20.890;2024-02-26T11:48:28;13.30;99.90
19359;DHT22;9815;52.334;20.890;2024-02-26T11:50:57;13.40;99.90
19359;DHT22;9815;52.334;20.890;2024-02-26T11:53:28;13.60;99.90
19359;DHT22;9815;52.334;20.890;2024-02-26T11:56:20;13.60;99.90
19359;DHT22;9815;52.334;20.890;2024-02-26T11:59:04;13.60;99.90
19359;DHT22;9815;52.334;20.890;2024-02-26T12:01:44;14.10;99.90
19359;DHT22;9815;52.334;20.890;2024-02-26T12:04:18;14.50;99.90
19359;DHT22;9815;52.334;20.890;2024-02-26T12:06:51;14.70;99.90
19359;DHT22;9815;52.334;20.890;2024-02-26T12:09:34;14.70;99.90
19359;DHT22;9815;52.334;20.890;2024-02-26T12:12:06;14.90;99.90
19359;DHT22;9815;52.334;20.890;2024-02-26T12:14:38;15.20;99.90
19359;DHT22;9815;52.334;20.890;2024-02-26T12:17:07;15.30;94.30
19359;DHT22;9815;52.334;20.890;2024-02-26T12:19:47;15.70;90.40
19359;DHT22;9815;52.334;20.890;2024-02-26T12:22:16;15.90;76.30
19359;DHT22;9815;52.334;20.890;2024-02-26T12:24:45;16.00;71.30
19359;DHT22;9815;52.334;20.890;2024-02-26T12:27:15;16.00;71.60
19359;DHT22;9815;52.334;20.890;2024-02-26T12:29:43;16.10;71.20
19359;DHT22;9815;52.334;20.890;2024-02-26T12:32:12;15.80;68.80
19359;DHT22;9815;52.334;20.890;2024-02-26T12:34:41;15.70;73.50
19359;DHT22;9815;52.334;20.890;2024-02-26T12:37:10;15.60;81.00
19359;DHT22;9815;52.334;20.890;2024-02-26T12:39:39;15.80;81.70
19359;DHT22;9815;52.334;20.890;2024-02-26T12:42:08;15.90;71.90
19359;DHT22;9815;52.334;20.890;2024-02-26T12:44:39;16.10;71.40
19359;DHT22;9815;52.334;20.890;2024-02-26T12:47:08;16.10;71.00
19359;DHT22;9815;52.334;20.890;2024-02-26T12:49:37;16.10;71.30
19359;DHT22;9815;52.334;20.890;2024-02-26T12:52:07;15.90;68.90
19359;DHT22;9815;52.334;20.890;2024-02-26T12:54:35;16.10;75.10
19359;DHT22;9815;52.334;20.890;2024-02-26T12:57:07;16.10;71.00
19359;DHT22;9815;52.334;20.890;2024-02-26T12:59:38;16.00;68.20
19359;DHT22;9815;52.334;20.890;2024-02-26T13:02:08;15.90;69.20
19359;DHT22;9815;52.334;20.890;2024-02-26T13:04:39;15.80;76.30
19359;DHT22;9815;52.334;20.890;2024-02-26T13:07:08;15.70;74.90
19359;DHT22;9815;52.334;20.890;2024-02-26T13:09:37;15.60;82.70
19359;DHT22;9815;52.334;20.890;2024-02-26T13:12:08;15.70;79.50
19359;DHT22;9815;52.334;20.890;2024-02-26T13:14:39;15.80;78.40
19359;DHT22;9815;52.334;20.890;2024-02-26T13:17:08;15.80;80.10
19359;DHT22;9815;52.334;20.890;2024-02-26T13:19:37;15.80;65.70
19359;DHT22;9815;52.334;20.890;2024-02-26T13:22:20;15.70;68.30
19359;DHT22;9815;52.334;20.890;2024-02-26T13:24:53;15.50;69.10
19359;DHT22;9815;52.334;20.890;2024-02-26T13:27:22;15.40;78.20
19359;DHT22;9815;52.334;20.890;2024-02-26T13:30:05;15.40;82.90
19359;DHT22;9815;52.334;20.890;2024-02-26T13:32:35;15.40;83.50
19359;DHT22;9815;52.334;20.890;2024-02-26T13:35:05;15.30;83.70
19359;DHT22;9815;52.334;20.890;2024-02-26T13:37:34;15.20;83.30
19359;DHT22;9815;52.334;20.890;2024-02-26T13:40:07;15.10;87.30
19359;DHT22;9815;52.334;20.890;2024-02-26T13:42:37;15.00;86.60
19359;DHT22;9815;52.334;20.890;2024-02-26T13:45:08;14.90;90.90
19359;DHT22;9815;52.334;20.890;2024-02-26T13:47:38;15.00;88.80
19359;DHT22;9815;52.334;20.890;2024-02-26T13:50:09;14.90;76.60
19359;DHT22;9815;52.334;20.890;2024-02-26T13:52:38;14.80;71.60
19359;DHT22;9815;52.334;20.890;2024-02-26T13:55:07;14.60;83.70
19359;DHT22;9815;52.334;20.890;2024-02-26T13:57:35;14.60;84.20
19359;DHT22;9815;52.334;20.890;2024-02-26T14:00:09;14.60;84.10
19359;DHT22;9815;52.334;20.890;2024-02-26T14:02:40;14.60;87.80
19359;DHT22;9815;52.334;20.890;2024-02-26T14:05:09;14.40;92.60
19359;DHT22;9815;52.334;20.890;2024-02-26T14:07:39;14.40;91.80
19359;DHT22;9815;52.334;20.890;2024-02-26T14:10:09;14.30;93.40
19359;DHT22;9815;52.334;20.890;2024-02-26T14:12:40;14.30;93.80
19359;DHT22;9815;52.334;20.890;2024-02-26T14:15:10;14.10;97.00
19359;DHT22;9815;52.334;20.890;2024-02-26T14:17:39;13.90;99.90
19359;DHT22;9815;52.334;20.890;2024-02-26T14:20:10;13.90;95.00
19359;DHT22;9815;52.334;20.890;2024-02-26T14:22:38;13.90;95.30
19359;DHT22;9815;52.334;20.890;2024-02-26T14:25:08;13.90;98.50
19359;DHT22;9815;52.334;20.890;2024-02-26T14:27:38;13.80;96.00
19359;DHT22;9815;52.334;20.890;2024-02-26T14:30:08;13.80;95.40
19359;DHT22;9815;52.334;20.890;2024-02-26T14:32:38;13.80;94.20
19359;DHT22;9815;52.334;20.890;2024-02-26T14:35:08;13.70;96.70
19359;DHT22;9815;52.334;20.890;2024-02-26T14:37:45;13.70;96.20
19359;DHT22;9815;52.334;20.890;2024-02-26T14:40:16;13.70;96.70
19359;DHT22;9815;52.334;20.890;2024-02-26T14:42:45;13.70;96.80
19359;DHT22;9815;52.334;20.890;2024-02-26T14:45:14;13.50;95.60
19359;DHT22;9815;52.334;20.890;2024-02-26T14:47:45;13.50;99.70
19359;DHT22;9815;52.334;20.890;2024-02-26T14:50:15;13.60;97.70
19359;DHT22;9815;52.334;20.890;2024-02-26T14:52:44;13.60;99.20
19359;DHT22;9815;52.334;20.890;2024-02-26T14:55:14;13.50;97.90
19359;DHT22;9815;52.334;20.890;2024-02-26T14:57:43;13.40;99.90
19359;DHT22;9815;52.334;20.890;2024-02-26T15:00:12;13.30;99.90
19359;DHT22;9815;52.334;20.890;2024-02-26T15:02:41;13.20;99.90
19359;DHT22;9815;52.334;20.890;2024-02-26T15:05:11;13.10;99.90
19359;DHT22;9815;52.334;20.890;2024-02-26T15:07:40;13.00;99.90
19359;DHT22;9815;52.334;20.890;2024-02-26T15:10:09;13.00;99.90
19359;DHT22;9815;52.334;20.890;2024-02-26T15:12:40;12.80;99.90
19359;DHT22;9815;52.334;20.890;2024-02-26T15:15:09;12.70;99.90
19359;DHT22;9815;52.334;20.890;2024-02-26T15:17:38;12.60;99.90
19359;DHT22;9815;52.334;20.890;2024-02-26T15:20:08;12.50;99.90
19359;DHT22;9815;52.334;20.890;2024-02-26T15:22:40;12.40;99.90
19359;DHT22;9815;52.334;20.890;2024-02-26T15:25:09;12.30;99.90
19359;DHT22;9815;52.334;20.890;2024-02-26T15:27:41;12.20;99.90
19359;DHT22;9815;52.334;20.890;2024-02-26T15:30:11;12.10;99.90
19359;DHT22;9815;52.334;20.890;2024-02-26T15:32:41;12.00;99.90
19359;DHT22;9815;52.334;20.890;2024-02-26T15:35:10;11.90;99.90
19359;DHT22;9815;52.334;20.890;2024-02-26T15:37:41;11.80;99.90
19359;DHT22;9815;52.334;20.890;2024-02-26T15:40:10;11.80;99.90
19359;DHT22;9815;52.334;20.890;2024-02-26T15:42:39;11.80;99.90
19359;DHT22;9815;52.334;20.890;2024-02-26T15:45:08;11.70;99.90
19359;DHT22;9815;52.334;20.890;2024-02-26T15:47:37;11.60;99.90
19359;DHT22;9815;52.334;20.890;2024-02-26T15:50:08;11.60;99.90
19359;DHT22;9815;52.334;20.890;2024-02-26T15:52:38;11.50;99.90
19359;DHT22;9815;52.334;20.890;2024-02-26T15:55:11;11.40;99.90
19359;DHT22;9815;52.334;20.890;2024-02-26T15:57:44;11.30;99.90